createdAt,value
2023-03-25T00:02:22.082Z,24.17
2023-03-25T00:04:54.526Z,24.13
2023-03-25T00:07:21.296Z,24.08
2023-03-25T00:09:48.032Z,24.08
2023-03-25T00:12:14.668Z,24.04
2023-03-25T00:14:42.144Z,24.01
2023-03-25T00:17:08.468Z,23.96
2023-03-25T00:19:35.528Z,23.96
2023-03-25T00:22:01.891Z,23.92
2023-03-25T00:24:28.237Z,23.89
2023-03-25T00:26:54.558Z,23.88
2023-03-25T00:29:20.924Z,23.84
2023-03-25T00:31:47.507Z,23.85
2023-03-25T00:34:14.808Z,23.80
2023-03-25T00:36:41.456Z,23.79
2023-03-25T00:39:08.410Z,23.78
2023-03-25T00:41:36.999Z,23.73
2023-03-25T00:44:03.434Z,23.75
2023-03-25T00:46:30.555Z,23.74
2023-03-25T00:48:56.927Z,23.71
2023-03-25T00:51:23.526Z,23.68
2023-03-25T00:53:53.463Z,23.69
2023-03-25T00:56:20.206Z,23.67
2023-03-25T00:58:46.513Z,23.63
2023-03-25T01:01:13.976Z,23.62
2023-03-25T01:03:40.754Z,23.60
2023-03-25T01:06:11.419Z,23.55
2023-03-25T01:08:38.484Z,23.54
2023-03-25T01:11:05.067Z,23.51
2023-03-25T01:13:31.403Z,23.49
2023-03-25T01:15:57.754Z,23.49
2023-03-25T01:18:24.098Z,23.44
2023-03-25T01:20:50.480Z,23.44
2023-03-25T01:23:16.839Z,23.42
2023-03-25T01:25:43.204Z,23.40
2023-03-25T01:28:09.523Z,23.38
2023-03-25T01:30:35.892Z,23.36
2023-03-25T01:33:02.313Z,23.35
2023-03-25T01:35:28.868Z,23.33
2023-03-25T01:37:55.209Z,23.31
2023-03-25T01:40:23.349Z,23.30
2023-03-25T01:42:49.699Z,23.29
2023-03-25T01:45:36.614Z,23.26
2023-03-25T01:48:06.193Z,23.26
2023-03-25T01:50:33.308Z,23.24
2023-03-25T01:53:00.011Z,23.21
2023-03-25T01:55:27.433Z,23.21
2023-03-25T01:57:54.388Z,23.20
2023-03-25T02:00:21.409Z,23.18
2023-03-25T02:02:47.777Z,23.16
2023-03-25T02:05:21.085Z,23.13
2023-03-25T02:07:47.981Z,23.11
2023-03-25T02:10:14.300Z,23.09
2023-03-25T02:12:41.383Z,23.07
2023-03-25T02:15:08.004Z,23.06
2023-03-25T02:17:49.894Z,23.04
2023-03-25T02:20:24.526Z,23.01
2023-03-25T02:22:50.799Z,23.00
2023-03-25T02:25:19.146Z,22.97
2023-03-25T02:27:57.025Z,22.96
2023-03-25T02:30:37.597Z,22.95
2023-03-25T02:33:19.325Z,22.94
2023-03-25T02:35:49.887Z,22.91
2023-03-25T02:38:36.696Z,22.89
2023-03-25T02:41:14.278Z,22.85
2023-03-25T02:43:45.502Z,22.87
2023-03-25T02:46:13.071Z,22.86
2023-03-25T02:48:58.165Z,22.85
2023-03-25T02:51:26.046Z,22.83
2023-03-25T02:53:52.418Z,22.82
2023-03-25T02:56:22.821Z,22.80
2023-03-25T02:58:49.792Z,22.81
2023-03-25T03:01:16.164Z,22.79
2023-03-25T03:03:42.529Z,22.77
2023-03-25T03:06:09.470Z,22.76
2023-03-25T03:08:51.122Z,22.74
2023-03-25T03:11:36.270Z,22.72
2023-03-25T03:14:08.436Z,22.69
2023-03-25T03:16:58.268Z,22.68
2023-03-25T03:19:38.991Z,22.67
2023-03-25T03:22:14.315Z,22.66
2023-03-25T03:24:42.067Z,22.64
2023-03-25T03:27:14.790Z,22.64
2023-03-25T03:29:45.241Z,22.63
2023-03-25T03:32:32.678Z,22.61
2023-03-25T03:35:00.377Z,22.59
2023-03-25T03:37:37.401Z,22.60
2023-03-25T03:40:07.012Z,22.58
2023-03-25T03:42:37.836Z,22.57
2023-03-25T03:45:08.326Z,22.58
2023-03-25T03:47:39.654Z,22.56
2023-03-25T03:50:09.177Z,22.55
2023-03-25T03:52:40.227Z,22.55
2023-03-25T03:55:13.902Z,22.54
2023-03-25T03:57:41.814Z,22.53
2023-03-25T04:00:10.162Z,22.51
2023-03-25T04:02:49.532Z,22.51
2023-03-25T04:05:16.768Z,22.50
2023-03-25T04:07:43.009Z,22.48
2023-03-25T04:10:14.825Z,22.48
2023-03-25T04:12:42.045Z,22.46
2023-03-25T04:15:08.454Z,22.42
2023-03-25T04:17:34.891Z,22.42
2023-03-25T04:20:01.634Z,22.40
2023-03-25T04:22:28.007Z,22.38
2023-03-25T04:24:56.108Z,22.37
2023-03-25T04:27:25.118Z,22.35
2023-03-25T04:29:54.183Z,22.33
2023-03-25T04:32:20.569Z,22.32
2023-03-25T04:34:47.193Z,22.32
2023-03-25T04:37:13.881Z,22.31
2023-03-25T04:39:40.469Z,22.29
2023-03-25T04:42:06.782Z,22.27
2023-03-25T04:44:39.233Z,22.27
2023-03-25T04:47:05.871Z,22.25
2023-03-25T04:49:32.226Z,22.24
2023-03-25T04:51:59.175Z,22.24
2023-03-25T04:54:25.892Z,22.24
2023-03-25T04:56:52.377Z,22.24
2023-03-25T04:59:18.867Z,22.23
2023-03-25T05:01:45.884Z,22.22
2023-03-25T05:04:13.943Z,22.22
2023-03-25T05:06:41.729Z,22.21
2023-03-25T05:09:08.855Z,22.20
2023-03-25T05:11:36.912Z,22.20
2023-03-25T05:14:03.476Z,22.16
2023-03-25T05:16:29.830Z,22.16
2023-03-25T05:18:56.242Z,22.11
2023-03-25T05:21:22.569Z,22.08
2023-03-25T05:23:48.881Z,22.08
2023-03-25T05:26:15.210Z,22.06
2023-03-25T05:28:42.265Z,22.05
2023-03-25T05:31:09.347Z,22.04
2023-03-25T05:33:37.151Z,22.01
2023-03-25T05:36:04.132Z,22.02
2023-03-25T05:38:30.493Z,22.00
2023-03-25T05:40:56.828Z,22.00
2023-03-25T05:43:23.978Z,21.99
2023-03-25T05:45:50.483Z,21.95
2023-03-25T05:48:16.958Z,21.95
2023-03-25T05:50:43.292Z,21.94
2023-03-25T05:53:12.941Z,21.97
2023-03-25T05:55:39.358Z,21.95
2023-03-25T05:58:06.846Z,21.94
2023-03-25T06:00:34.970Z,21.94
2023-03-25T06:03:02.541Z,21.94
2023-03-25T06:05:29.603Z,21.97
2023-03-25T06:07:57.289Z,21.99
2023-03-25T06:10:23.622Z,21.99
2023-03-25T06:12:52.947Z,21.94
2023-03-25T06:15:21.179Z,21.97
2023-03-25T06:17:47.576Z,21.95
2023-03-25T06:20:16.346Z,21.97
2023-03-25T06:22:44.355Z,21.94
2023-03-25T06:25:11.631Z,21.94
2023-03-25T06:27:40.426Z,21.93
2023-03-25T06:30:10.279Z,21.90
2023-03-25T06:32:37.438Z,21.91
2023-03-25T06:35:04.308Z,21.91
2023-03-25T06:37:30.884Z,21.91
2023-03-25T06:39:59.757Z,21.92
2023-03-25T06:42:26.833Z,21.92
2023-03-25T06:44:53.508Z,21.86
2023-03-25T06:47:20.044Z,21.91
2023-03-25T06:49:46.429Z,21.90
2023-03-25T06:52:12.884Z,21.89
2023-03-25T06:54:39.222Z,21.89
2023-03-25T06:57:06.031Z,21.91
2023-03-25T06:59:32.354Z,21.90
2023-03-25T07:01:58.883Z,21.89
2023-03-25T07:04:25.230Z,21.88
2023-03-25T07:06:51.945Z,21.91
2023-03-25T07:09:18.287Z,21.94
2023-03-25T07:11:44.606Z,21.95
2023-03-25T07:14:10.950Z,21.95
2023-03-25T07:16:37.284Z,21.95
2023-03-25T07:19:03.620Z,21.93
2023-03-25T07:21:29.936Z,21.92
2023-03-25T07:23:56.289Z,21.89
2023-03-25T07:26:22.625Z,21.88
2023-03-25T07:28:48.945Z,21.86
2023-03-25T07:31:15.653Z,21.87
2023-03-25T07:33:41.999Z,21.86
2023-03-25T07:36:08.711Z,21.88
2023-03-25T07:38:35.246Z,21.87
2023-03-25T07:41:04.807Z,21.91
2023-03-25T07:43:32.844Z,21.98
2023-03-25T07:45:59.522Z,22.11
2023-03-25T07:48:26.770Z,22.22
2023-03-25T07:50:53.180Z,22.30
2023-03-25T07:53:20.441Z,22.31
2023-03-25T07:55:46.874Z,22.35
2023-03-25T07:58:13.191Z,22.38
2023-03-25T08:00:39.516Z,22.39
2023-03-25T08:03:06.586Z,22.36
2023-03-25T08:05:33.083Z,22.35
2023-03-25T08:08:02.047Z,22.43
2023-03-25T08:10:28.495Z,22.53
2023-03-25T08:12:54.830Z,22.62
2023-03-25T08:15:24.493Z,22.71
2023-03-25T08:17:52.286Z,22.80
2023-03-25T08:20:18.729Z,22.78
2023-03-25T08:22:45.285Z,22.75
2023-03-25T08:25:11.676Z,22.76
2023-03-25T08:27:37.991Z,22.67
2023-03-25T08:30:05.168Z,22.65
2023-03-25T08:32:31.555Z,22.66
2023-03-25T08:34:57.928Z,22.54
2023-03-25T08:37:25.813Z,22.61
2023-03-25T08:39:55.126Z,22.60
2023-03-25T08:42:21.454Z,22.63
2023-03-25T08:44:47.791Z,22.59
2023-03-25T08:47:15.351Z,22.63
2023-03-25T08:49:41.902Z,22.66
2023-03-25T08:52:08.777Z,22.73
2023-03-25T08:54:35.304Z,22.77
2023-03-25T08:57:01.742Z,22.78
2023-03-25T08:59:28.312Z,22.79
2023-03-25T09:01:56.050Z,22.76
2023-03-25T09:04:23.056Z,22.77
2023-03-25T09:07:12.001Z,22.78
2023-03-25T09:09:38.664Z,22.81
2023-03-25T09:12:05.332Z,22.86
2023-03-25T09:14:31.642Z,22.93
2023-03-25T09:16:57.976Z,22.98
2023-03-25T09:19:24.589Z,22.89
2023-03-25T09:21:51.204Z,22.95
2023-03-25T09:24:17.528Z,23.01
2023-03-25T09:26:43.893Z,23.01
2023-03-25T09:29:10.560Z,23.03
2023-03-25T09:31:37.035Z,23.03
2023-03-25T09:34:03.397Z,23.02
2023-03-25T09:36:29.805Z,23.02
2023-03-25T09:38:56.364Z,23.01
2023-03-25T09:41:25.305Z,23.02
2023-03-25T09:43:56.513Z,23.00
2023-03-25T09:46:23.070Z,23.01
2023-03-25T09:48:49.407Z,23.00
2023-03-25T09:51:18.749Z,23.01
2023-03-25T09:53:51.037Z,23.00
2023-03-25T09:56:21.668Z,22.99
2023-03-25T09:58:48.494Z,22.89
2023-03-25T10:01:14.819Z,22.87
2023-03-25T10:03:51.753Z,22.84
2023-03-25T10:06:20.247Z,22.83
2023-03-25T10:08:52.443Z,22.89
2023-03-25T10:11:25.926Z,22.99
2023-03-25T10:13:58.319Z,23.04
2023-03-25T10:16:27.437Z,23.10
2023-03-25T10:18:59.884Z,23.07
2023-03-25T10:21:43.590Z,23.13
2023-03-25T10:24:18.972Z,23.24
2023-03-25T10:26:48.650Z,23.34
2023-03-25T10:29:16.271Z,23.42
2023-03-25T10:31:50.350Z,23.40
2023-03-25T10:34:20.496Z,23.37
2023-03-25T10:36:49.229Z,23.34
2023-03-25T10:39:19.153Z,23.30
2023-03-25T10:41:52.057Z,23.23
2023-03-25T10:44:19.338Z,23.18
2023-03-25T10:46:49.650Z,23.14
2023-03-25T10:49:18.203Z,23.13
2023-03-25T10:51:44.532Z,23.11
2023-03-25T10:54:11.674Z,23.13
2023-03-25T10:56:45.323Z,23.10
2023-03-25T10:59:18.767Z,23.11
2023-03-25T11:01:45.579Z,23.10
2023-03-25T11:04:12.976Z,23.11
2023-03-25T11:06:40.023Z,23.11
2023-03-25T11:09:25.419Z,23.08
2023-03-25T11:11:52.501Z,23.06
2023-03-25T11:14:26.227Z,23.05
2023-03-25T11:16:57.070Z,23.02
2023-03-25T11:19:27.618Z,23.00
2023-03-25T11:22:04.691Z,22.99
2023-03-25T11:24:34.392Z,22.98
2023-03-25T11:27:00.814Z,22.97
2023-03-25T11:29:27.310Z,22.97
2023-03-25T11:31:57.717Z,22.92
2023-03-25T11:34:24.929Z,22.93
2023-03-25T11:36:53.061Z,22.96
2023-03-25T11:39:25.236Z,22.94
2023-03-25T11:41:51.746Z,22.92
2023-03-25T11:44:31.075Z,22.89
2023-03-25T11:46:58.534Z,22.91
2023-03-25T11:49:26.049Z,22.91
2023-03-25T11:51:59.705Z,22.92
2023-03-25T11:54:26.112Z,22.92
2023-03-25T11:56:52.468Z,22.91
2023-03-25T11:59:23.231Z,22.89
2023-03-25T12:01:49.814Z,22.89
2023-03-25T12:04:20.858Z,22.88
2023-03-25T12:06:57.806Z,22.90
2023-03-25T12:09:24.872Z,22.91
2023-03-25T12:11:54.408Z,22.85
2023-03-25T12:14:39.144Z,22.87
2023-03-25T12:17:06.340Z,22.81
2023-03-25T12:19:41.138Z,22.80
2023-03-25T12:22:08.042Z,22.80
2023-03-25T12:24:47.983Z,22.77
2023-03-25T12:27:37.567Z,22.77
2023-03-25T12:30:13.326Z,22.76
2023-03-25T12:33:06.185Z,22.75
2023-03-25T12:35:41.384Z,22.77
2023-03-25T12:38:26.682Z,22.82
2023-03-25T12:40:59.245Z,22.83
2023-03-25T12:43:44.023Z,22.87
2023-03-25T12:46:14.794Z,22.82
2023-03-25T12:48:47.771Z,22.79
2023-03-25T12:51:23.166Z,22.74
2023-03-25T12:54:02.775Z,22.70
2023-03-25T12:56:29.060Z,22.71
2023-03-25T12:58:59.925Z,22.71
2023-03-25T13:01:49.595Z,22.71
2023-03-25T13:04:25.786Z,22.70
2023-03-25T13:06:52.132Z,22.70
2023-03-25T13:09:25.675Z,22.68
2023-03-25T13:11:53.409Z,22.67
2023-03-25T13:14:46.286Z,22.66
2023-03-25T13:17:18.530Z,22.65
2023-03-25T13:19:44.883Z,22.63
2023-03-25T13:22:19.075Z,22.63
2023-03-25T13:24:52.881Z,22.62
2023-03-25T13:27:19.349Z,22.60
2023-03-25T13:29:49.527Z,22.58
2023-03-25T13:32:17.504Z,22.58
2023-03-25T13:34:44.697Z,22.58
2023-03-25T13:37:12.414Z,22.57
2023-03-25T13:39:38.712Z,22.56
2023-03-25T13:42:06.770Z,22.56
2023-03-25T13:44:39.589Z,22.54
2023-03-25T13:47:05.861Z,22.52
2023-03-25T13:49:37.798Z,22.52
2023-03-25T13:52:04.126Z,22.50
2023-03-25T13:54:33.027Z,22.50
2023-03-25T13:57:19.130Z,22.48
2023-03-25T14:00:01.677Z,22.47
2023-03-25T14:02:27.980Z,22.45
2023-03-25T14:05:00.710Z,22.44
2023-03-25T14:07:29.825Z,22.41
2023-03-25T14:10:14.174Z,22.39
2023-03-25T14:12:47.446Z,22.41
2023-03-25T14:15:15.510Z,22.41
2023-03-25T14:17:42.122Z,22.40
2023-03-25T14:20:10.590Z,22.41
2023-03-25T14:22:40.380Z,22.42
2023-03-25T14:25:26.993Z,22.42
2023-03-25T14:27:53.333Z,22.44
2023-03-25T14:30:20.251Z,22.45
2023-03-25T14:32:46.706Z,22.45
2023-03-25T14:35:31.198Z,22.47
2023-03-25T14:38:09.455Z,22.45
2023-03-25T14:40:47.384Z,22.46
2023-03-25T14:43:31.829Z,22.44
2023-03-25T14:46:01.360Z,22.43
2023-03-25T14:48:37.394Z,22.42
2023-03-25T14:51:30.012Z,22.40
2023-03-25T14:53:59.664Z,22.40
2023-03-25T14:56:31.575Z,22.42
2023-03-25T14:58:58.173Z,22.41
2023-03-25T15:01:30.032Z,22.41
2023-03-25T15:04:14.370Z,22.40
2023-03-25T15:06:41.089Z,22.38
2023-03-25T15:09:11.801Z,22.37
2023-03-25T15:11:42.617Z,22.36
2023-03-25T15:14:14.058Z,22.35
2023-03-25T15:16:47.438Z,22.32
2023-03-25T15:19:17.344Z,22.31
2023-03-25T15:21:59.143Z,22.37
2023-03-25T15:24:25.443Z,22.36
2023-03-25T15:26:51.768Z,22.37
2023-03-25T15:29:21.144Z,22.37
2023-03-25T15:31:50.629Z,22.36
2023-03-25T15:34:37.401Z,22.37
2023-03-25T15:37:09.948Z,22.37
2023-03-25T15:39:39.248Z,22.40
2023-03-25T15:42:31.780Z,22.47
2023-03-25T15:45:07.320Z,22.50
2023-03-25T15:47:43.226Z,22.50
2023-03-25T15:50:22.084Z,22.48
2023-03-25T15:52:54.037Z,22.51
2023-03-25T15:55:21.173Z,22.43
2023-03-25T15:57:48.227Z,22.37
2023-03-25T16:00:15.886Z,22.31
2023-03-25T16:02:48.290Z,22.28
2023-03-25T16:05:14.612Z,22.27
2023-03-25T16:07:41.263Z,22.31
2023-03-25T16:10:16.227Z,22.35
2023-03-25T16:12:43.304Z,22.37
2023-03-25T16:15:13.172Z,22.37
2023-03-25T16:17:39.532Z,22.35
2023-03-25T16:20:07.684Z,22.36
2023-03-25T16:22:34.570Z,22.34
2023-03-25T16:25:01.609Z,22.28
2023-03-25T16:27:34.795Z,22.26
2023-03-25T16:30:01.341Z,22.27
2023-03-25T16:32:34.107Z,22.24
2023-03-25T16:35:00.860Z,22.24
2023-03-25T16:37:27.341Z,22.23
2023-03-25T16:39:56.774Z,22.22
2023-03-25T16:42:32.768Z,22.19
2023-03-25T16:44:59.095Z,22.20
2023-03-25T16:47:25.631Z,22.18
2023-03-25T16:49:52.492Z,22.17
2023-03-25T16:52:19.688Z,22.17
2023-03-25T16:54:47.313Z,22.22
2023-03-25T16:57:33.874Z,22.21
2023-03-25T17:00:05.944Z,22.22
2023-03-25T17:02:41.229Z,22.25
2023-03-25T17:05:16.153Z,22.26
2023-03-25T17:07:42.744Z,22.24
2023-03-25T17:10:19.612Z,22.25
2023-03-25T17:12:46.653Z,22.25
2023-03-25T17:15:14.455Z,22.22
2023-03-25T17:17:42.230Z,22.23
2023-03-25T17:20:12.724Z,22.24
2023-03-25T17:22:39.522Z,22.26
2023-03-25T17:25:18.391Z,22.30
2023-03-25T17:27:44.774Z,22.36
2023-03-25T17:30:15.499Z,22.37
2023-03-25T17:32:43.716Z,22.38
2023-03-25T17:35:15.939Z,22.37
2023-03-25T17:37:42.243Z,22.37
2023-03-25T17:40:11.738Z,22.37
2023-03-25T17:42:38.199Z,22.38
2023-03-25T17:45:04.643Z,22.37
2023-03-25T17:47:31.186Z,22.38
2023-03-25T17:49:58.856Z,22.40
2023-03-25T17:52:29.549Z,22.42
2023-03-25T17:54:57.755Z,22.46
2023-03-25T17:57:24.059Z,22.45
2023-03-25T17:59:51.579Z,22.49
2023-03-25T18:02:17.925Z,22.49
2023-03-25T18:04:44.259Z,22.52
2023-03-25T18:07:11.151Z,22.47
2023-03-25T18:09:37.561Z,22.45
2023-03-25T18:12:03.874Z,22.50
2023-03-25T18:14:30.425Z,22.60
2023-03-25T18:16:56.778Z,22.68
2023-03-25T18:19:24.153Z,22.67
2023-03-25T18:21:50.631Z,22.62
2023-03-25T18:24:16.991Z,22.52
2023-03-25T18:26:45.239Z,22.53
2023-03-25T18:29:21.860Z,22.56
2023-03-25T18:31:48.244Z,22.51
2023-03-25T18:34:14.950Z,22.48
2023-03-25T18:36:41.504Z,22.51
2023-03-25T18:39:11.617Z,22.47
2023-03-25T18:41:37.938Z,22.54
2023-03-25T18:44:04.262Z,22.55
2023-03-25T18:46:30.777Z,22.56
2023-03-25T18:49:02.218Z,22.52
2023-03-25T18:51:29.322Z,22.51
2023-03-25T18:53:55.745Z,22.50
2023-03-25T18:56:23.573Z,22.52
2023-03-25T18:58:49.968Z,22.49
2023-03-25T19:01:16.666Z,22.48
2023-03-25T19:03:43.152Z,22.46
2023-03-25T19:06:10.342Z,22.45
2023-03-25T19:08:37.008Z,22.42
2023-03-25T19:11:16.261Z,22.45
2023-03-25T19:13:46.876Z,22.42
2023-03-25T19:16:13.182Z,22.42
2023-03-25T19:18:39.516Z,22.47
2023-03-25T19:21:06.056Z,22.45
2023-03-25T19:23:32.536Z,22.47
2023-03-25T19:26:01.022Z,22.50
2023-03-25T19:28:27.449Z,22.65
2023-03-25T19:30:54.714Z,22.87
2023-03-25T19:33:21.397Z,23.12
2023-03-25T19:35:51.810Z,23.34
2023-03-25T19:38:22.760Z,23.47
2023-03-25T19:40:49.655Z,23.65
2023-03-25T19:43:16.075Z,23.75
2023-03-25T19:45:42.399Z,23.89
2023-03-25T19:48:08.768Z,23.98
2023-03-25T19:50:35.429Z,24.13
2023-03-25T19:53:02.129Z,24.25
2023-03-25T19:55:28.453Z,24.37
2023-03-25T19:57:54.784Z,24.45
2023-03-25T20:00:21.905Z,24.53
2023-03-25T20:02:49.149Z,24.61
2023-03-25T20:05:15.809Z,24.66
2023-03-25T20:07:42.575Z,24.71
2023-03-25T20:12:43.485Z,24.68
2023-03-25T20:15:10.695Z,24.74
2023-03-25T20:17:37.256Z,24.77
2023-03-25T20:20:06.989Z,24.78
2023-03-25T20:22:33.571Z,24.82
2023-03-25T20:24:59.899Z,24.84
2023-03-25T20:27:26.447Z,24.83
2023-03-25T20:29:53.022Z,24.83
2023-03-25T20:32:21.691Z,24.88
2023-03-25T20:34:48.612Z,24.89
2023-03-25T20:37:15.319Z,24.90
2023-03-25T20:39:41.657Z,24.89
2023-03-25T20:42:07.978Z,24.91
2023-03-25T20:44:34.383Z,24.91
2023-03-25T20:47:00.810Z,24.93
2023-03-25T20:49:27.178Z,24.92
2023-03-25T20:51:55.846Z,25.09
2023-03-25T20:54:22.220Z,25.19
2023-03-25T20:56:48.835Z,25.20
2023-03-25T20:59:16.661Z,25.21
2023-03-25T21:01:43.045Z,25.17
2023-03-25T21:04:11.415Z,25.18
2023-03-25T21:06:38.219Z,25.14
2023-03-25T21:09:07.542Z,25.12
2023-03-25T21:11:34.094Z,25.05
2023-03-25T21:14:00.402Z,25.04
2023-03-25T21:16:27.467Z,24.99
2023-03-25T21:18:56.470Z,25.02
2023-03-25T21:21:24.323Z,24.95
2023-03-25T21:23:50.755Z,24.92
2023-03-25T21:26:17.547Z,24.83
2023-03-25T21:28:43.918Z,24.83
2023-03-25T21:31:13.914Z,24.75
2023-03-25T21:33:40.254Z,24.71
2023-03-25T21:36:07.615Z,24.68
2023-03-25T21:38:36.737Z,24.65
2023-03-25T21:41:04.210Z,24.65
2023-03-25T21:43:31.072Z,24.64
2023-03-25T21:45:57.512Z,24.64
2023-03-25T21:48:32.373Z,24.62
2023-03-25T21:50:58.815Z,24.59
2023-03-25T21:53:25.593Z,24.57
2023-03-25T21:55:55.153Z,24.55
2023-03-25T21:58:22.104Z,24.62
2023-03-25T22:00:48.870Z,24.53
2023-03-25T22:03:18.712Z,24.47
2023-03-25T22:05:45.289Z,24.50
2023-03-25T22:08:11.616Z,24.41
2023-03-25T22:10:37.957Z,24.39
2023-03-25T22:13:04.267Z,24.34
2023-03-25T22:15:31.083Z,24.31
2023-03-25T22:17:57.467Z,24.29
2023-03-25T22:20:23.844Z,24.29
2023-03-25T22:22:51.381Z,24.26
2023-03-25T22:25:18.232Z,24.31
2023-03-25T22:27:44.544Z,24.29
2023-03-25T22:30:11.220Z,24.27
2023-03-25T22:32:37.602Z,24.27
2023-03-25T22:35:04.068Z,24.22
2023-03-25T22:37:30.635Z,24.18
2023-03-25T22:39:56.946Z,24.14
2023-03-25T22:42:25.642Z,24.13
2023-03-25T22:44:51.982Z,24.12
2023-03-25T22:47:18.294Z,24.10
2023-03-25T22:49:44.601Z,24.09
2023-03-25T22:52:12.424Z,24.07
2023-03-25T22:54:38.906Z,24.09
2023-03-25T22:57:05.891Z,23.98
2023-03-25T22:59:32.223Z,23.98
2023-03-25T23:01:58.583Z,24.00
2023-03-25T23:04:24.939Z,23.95
2023-03-25T23:07:00.634Z,23.92
2023-03-25T23:09:42.750Z,23.90
2023-03-25T23:12:13.079Z,23.84
2023-03-25T23:14:40.003Z,23.78
2023-03-25T23:17:06.331Z,23.74
2023-03-25T23:19:32.657Z,23.68
2023-03-25T23:21:59.646Z,23.69
2023-03-25T23:24:27.586Z,23.67
2023-03-25T23:26:54.048Z,23.66
2023-03-25T23:29:20.469Z,23.63
2023-03-25T23:31:46.834Z,23.58
2023-03-25T23:34:14.009Z,23.57
2023-03-25T23:36:40.359Z,23.54
2023-03-25T23:39:07.886Z,23.58
2023-03-25T23:41:34.262Z,23.47
2023-03-25T23:44:00.627Z,23.37
2023-03-25T23:46:27.437Z,23.29
2023-03-25T23:49:01.898Z,23.26
2023-03-25T23:51:28.971Z,23.25
2023-03-25T23:53:55.346Z,23.21
2023-03-25T23:56:22.574Z,23.19
2023-03-25T23:58:49.038Z,23.19
